MMZO/ZLO METAR and TAF weather

Enter ICAO airport designator
Station Type Date Time Source
MMZO METAR 2022/01/29 01:40 UTC NOAA

MMZO 290140Z 00000KT 10SM BKN100 25/20 A2990 RMK 8/030


Station Type Date Time Source
MMZO Decoded METAR 2022/01/29 01:40 UTC NOAA

Manzanillo International , Mexico (MMZO) 19-09N 104-34W
Jan 28, 2022 - 08:40 PM EST / 2022.01.29 0140 UTC
Wind: Calm:0
Visibility: 10 mile(s):0
Sky conditions: mostly cloudy
Temperature: 77 F (25 C)
Dew Point: 68 F (20 C)
Relative Humidity: 73%
Pressure (altimeter): 29.9 in. Hg (1012 hPa)
ob: MMZO 290140Z 00000KT 10SM BKN100 25/20 A2990 RMK 8/030
cycle: 1

Station Type Date Time Source
MMZO TAF 2022/01/29 06:03 UTC NOAA

TAF MMZO 290501Z 2906/3006 00000KT P6SM BKN200
FM291800 22010KT P6SM SCT200
FM300300 24005KT P6SM SCT200

Example: see airport list